createdAt,value
2023-06-25T00:00:23.221Z,95115.00
2023-06-25T00:01:23.305Z,95115.00
2023-06-25T00:02:23.327Z,95113.00
2023-06-25T00:03:23.377Z,95111.00
2023-06-25T00:04:23.365Z,95111.00
2023-06-25T00:05:23.364Z,95109.00
2023-06-25T00:06:23.431Z,95107.00
2023-06-25T00:07:23.560Z,95109.00
2023-06-25T00:08:23.461Z,95109.00
2023-06-25T00:09:23.519Z,95109.00
2023-06-25T00:10:23.525Z,95109.00
2023-06-25T00:11:23.565Z,95105.00
2023-06-25T00:12:23.628Z,95109.00
2023-06-25T00:13:23.647Z,95105.00
2023-06-25T00:14:23.674Z,95107.00
2023-06-25T00:15:23.695Z,95107.00
2023-06-25T00:16:23.752Z,95107.00
2023-06-25T00:17:23.817Z,95107.00
2023-06-25T00:18:23.837Z,95107.00
2023-06-25T00:19:23.880Z,95107.00
2023-06-25T00:20:23.955Z,95105.00
2023-06-25T00:21:23.988Z,95107.00
2023-06-25T00:22:24.008Z,95105.00
2023-06-25T00:23:24.066Z,95103.00
2023-06-25T00:24:24.096Z,95105.00
2023-06-25T00:25:24.140Z,95105.00
2023-06-25T00:26:24.183Z,95107.00
2023-06-25T00:27:24.244Z,95107.00
2023-06-25T00:28:24.301Z,95107.00
2023-06-25T00:29:24.308Z,95109.00
2023-06-25T00:30:24.354Z,95107.00
2023-06-25T00:31:24.390Z,95105.00
2023-06-25T00:32:24.372Z,95105.00
2023-06-25T00:33:24.340Z,95107.00
2023-06-25T00:34:24.346Z,95107.00
2023-06-25T00:35:24.406Z,95107.00
2023-06-25T00:36:24.452Z,95109.00
2023-06-25T00:37:24.482Z,95105.00
2023-06-25T00:38:24.543Z,95107.00
2023-06-25T00:39:24.569Z,95107.00
2023-06-25T00:40:24.627Z,95107.00
2023-06-25T00:41:24.701Z,95103.00
2023-06-25T00:42:25.514Z,95105.00
2023-06-25T00:43:24.741Z,95098.00
2023-06-25T00:44:24.772Z,95100.00
2023-06-25T00:45:24.837Z,95100.00
2023-06-25T00:46:24.914Z,95102.00
2023-06-25T00:47:25.000Z,95100.00
2023-06-25T00:48:24.968Z,95100.00
2023-06-25T00:49:24.990Z,95100.00
2023-06-25T00:50:25.035Z,95098.00
2023-06-25T00:51:25.077Z,95096.00
2023-06-25T00:52:25.129Z,95094.00
2023-06-25T00:53:25.174Z,95096.00
2023-06-25T00:54:25.233Z,95094.00
2023-06-25T00:55:25.252Z,95094.00
2023-06-25T00:56:25.276Z,95094.00
2023-06-25T00:57:25.305Z,95094.00
2023-06-25T00:58:25.305Z,95094.00
2023-06-25T00:59:25.392Z,95092.00
2023-06-25T01:00:25.413Z,95090.00
2023-06-25T01:01:25.472Z,95088.00
2023-06-25T01:02:25.560Z,95088.00
2023-06-25T01:03:25.634Z,95088.00
2023-06-25T01:04:25.557Z,95086.00
2023-06-25T01:05:25.538Z,95086.00
2023-06-25T01:06:25.545Z,95084.00
2023-06-25T01:07:25.585Z,95084.00
2023-06-25T01:08:25.587Z,95084.00
2023-06-25T01:09:25.691Z,95086.00
2023-06-25T01:10:25.669Z,95084.00
2023-06-25T01:11:25.717Z,95084.00
2023-06-25T01:12:25.780Z,95084.00
2023-06-25T01:13:25.813Z,95084.00
2023-06-25T01:14:25.785Z,95084.00
2023-06-25T01:15:25.797Z,95084.00
2023-06-25T01:16:25.854Z,95086.00
2023-06-25T01:17:25.867Z,95082.00
2023-06-25T01:18:25.795Z,95084.00
2023-06-25T01:19:25.803Z,95084.00
2023-06-25T01:20:25.864Z,95088.00
2023-06-25T01:21:25.898Z,95084.00
2023-06-25T01:22:25.983Z,95086.00
2023-06-25T01:23:26.017Z,95086.00
2023-06-25T01:24:26.088Z,95084.00
2023-06-25T01:25:26.115Z,95086.00
2023-06-25T01:26:26.218Z,95080.00
2023-06-25T01:27:26.235Z,95086.00
2023-06-25T01:28:26.296Z,95080.00
2023-06-25T01:29:26.359Z,95080.00
2023-06-25T01:30:26.417Z,95080.00
2023-06-25T01:31:26.419Z,95080.00
2023-06-25T01:32:26.502Z,95078.00
2023-06-25T01:33:26.545Z,95076.00
2023-06-25T01:34:26.587Z,95074.00
2023-06-25T01:35:26.623Z,95074.00
2023-06-25T01:36:26.712Z,95070.00
2023-06-25T01:37:26.730Z,95074.00
2023-06-25T01:38:26.791Z,95072.00
2023-06-25T01:39:26.758Z,95070.00
2023-06-25T01:40:26.788Z,95068.00
2023-06-25T01:41:26.793Z,95070.00
2023-06-25T01:42:26.786Z,95068.00
2023-06-25T01:43:26.861Z,95070.00
2023-06-25T01:44:26.885Z,95068.00
2023-06-25T01:45:26.906Z,95066.00
2023-06-25T01:46:27.027Z,95068.00
2023-06-25T01:47:27.089Z,95070.00
2023-06-25T01:48:27.061Z,95066.00
2023-06-25T01:49:32.010Z,95068.00
2023-06-25T01:50:28.095Z,95064.00
2023-06-25T01:51:27.106Z,95064.00
2023-06-25T01:52:27.096Z,95066.00
2023-06-25T01:53:27.118Z,95066.00
2023-06-25T01:54:27.089Z,95066.00
2023-06-25T01:55:27.091Z,95066.00
2023-06-25T01:56:27.068Z,95066.00
2023-06-25T01:57:27.065Z,95066.00
2023-06-25T01:58:27.080Z,95066.00
2023-06-25T01:59:27.073Z,95062.00
2023-06-25T02:00:27.118Z,95064.00
2023-06-25T02:01:27.218Z,95062.00
2023-06-25T02:02:27.343Z,95062.00
2023-06-25T02:03:27.464Z,95062.00
2023-06-25T02:04:27.355Z,95062.00
2023-06-25T02:05:27.406Z,95062.00
2023-06-25T02:06:27.447Z,95060.00
2023-06-25T02:07:27.570Z,95060.00
2023-06-25T02:08:27.596Z,95060.00
2023-06-25T02:09:27.657Z,95060.00
2023-06-25T02:10:27.708Z,95058.00
2023-06-25T02:11:27.772Z,95054.00
2023-06-25T02:12:27.805Z,95056.00
2023-06-25T02:13:27.878Z,95056.00
2023-06-25T02:14:27.949Z,95056.00
2023-06-25T02:15:28.029Z,95056.00
2023-06-25T02:16:28.160Z,95056.00
2023-06-25T02:17:28.064Z,95054.00
2023-06-25T02:18:28.074Z,95054.00
2023-06-25T02:19:28.135Z,95052.00
2023-06-25T02:20:28.228Z,95048.00
2023-06-25T02:21:29.153Z,95050.00
2023-06-25T02:22:28.347Z,95047.00
2023-06-25T02:23:28.412Z,95048.00
2023-06-25T02:24:28.561Z,95047.00
2023-06-25T02:25:28.552Z,95047.00
2023-06-25T02:26:28.591Z,95048.00
2023-06-25T02:27:28.617Z,95048.00
2023-06-25T02:28:28.686Z,95048.00
2023-06-25T02:29:28.744Z,95047.00
2023-06-25T02:30:28.812Z,95047.00
2023-06-25T02:31:28.920Z,95045.00
2023-06-25T02:32:28.873Z,95045.00
2023-06-25T02:33:28.844Z,95045.00
2023-06-25T02:34:28.842Z,95039.00
2023-06-25T02:35:28.881Z,95039.00
2023-06-25T02:36:28.884Z,95037.00
2023-06-25T02:37:28.890Z,95037.00
2023-06-25T02:38:28.978Z,95037.00
2023-06-25T02:39:29.036Z,95037.00
2023-06-25T02:40:29.076Z,95035.00
2023-06-25T02:41:29.139Z,95035.00
2023-06-25T02:42:29.274Z,95037.00
2023-06-25T02:43:29.204Z,95041.00
2023-06-25T02:44:29.206Z,95039.00
2023-06-25T02:45:29.214Z,95039.00
2023-06-25T02:46:29.337Z,95041.00
2023-06-25T02:47:29.328Z,95043.00
2023-06-25T02:48:29.683Z,95045.00
2023-06-25T02:49:29.499Z,95045.00
2023-06-25T02:50:29.461Z,95043.00
2023-06-25T02:51:29.571Z,95043.00
2023-06-25T02:52:29.562Z,95047.00
2023-06-25T02:53:29.658Z,95045.00
2023-06-25T02:54:29.611Z,95045.00
2023-06-25T02:55:29.664Z,95041.00
2023-06-25T02:56:29.747Z,95041.00
2023-06-25T02:57:29.789Z,95041.00
2023-06-25T02:58:29.873Z,95039.00
2023-06-25T02:59:29.911Z,95041.00
2023-06-25T03:00:30.008Z,95039.00
2023-06-25T03:01:30.116Z,95041.00
2023-06-25T03:02:30.251Z,95039.00
2023-06-25T03:03:30.229Z,95037.00
2023-06-25T03:04:30.326Z,95039.00
2023-06-25T03:05:30.267Z,95039.00
2023-06-25T03:06:30.308Z,95039.00
2023-06-25T03:07:30.319Z,95037.00
2023-06-25T03:08:30.376Z,95039.00
2023-06-25T03:09:30.485Z,95037.00
2023-06-25T03:10:30.533Z,95037.00
2023-06-25T03:11:30.607Z,95039.00
2023-06-25T03:12:30.621Z,95037.00
2023-06-25T03:13:30.652Z,95039.00
2023-06-25T03:14:35.342Z,95037.00
2023-06-25T03:15:31.707Z,95039.00
2023-06-25T03:16:30.683Z,95039.00
2023-06-25T03:17:30.713Z,95041.00
2023-06-25T03:18:30.685Z,95041.00
2023-06-25T03:19:31.676Z,95041.00
2023-06-25T03:20:30.658Z,95043.00
2023-06-25T03:21:30.676Z,95041.00
2023-06-25T03:22:30.762Z,95045.00
2023-06-25T03:23:30.638Z,95043.00
2023-06-25T03:24:30.645Z,95043.00
2023-06-25T03:25:30.625Z,95043.00
2023-06-25T03:26:30.635Z,95043.00
2023-06-25T03:27:30.648Z,95043.00
2023-06-25T03:28:30.663Z,95043.00
2023-06-25T03:29:30.692Z,95041.00
2023-06-25T03:30:30.754Z,95043.00
2023-06-25T03:31:30.850Z,95043.00
2023-06-25T03:32:30.926Z,95043.00
2023-06-25T03:33:30.939Z,95043.00
2023-06-25T03:34:30.987Z,95043.00
2023-06-25T03:35:31.056Z,95043.00
2023-06-25T03:36:31.106Z,95041.00
2023-06-25T03:37:31.126Z,95043.00
2023-06-25T03:38:31.148Z,95041.00
2023-06-25T03:39:31.163Z,95041.00
2023-06-25T03:40:31.196Z,95041.00
2023-06-25T03:41:31.210Z,95041.00
2023-06-25T03:42:31.229Z,95039.00
2023-06-25T03:43:31.273Z,95039.00
2023-06-25T03:44:31.287Z,95041.00
2023-06-25T03:45:31.312Z,95039.00
2023-06-25T03:46:31.354Z,95041.00
2023-06-25T03:47:31.565Z,95039.00
2023-06-25T03:48:31.636Z,95037.00
2023-06-25T03:49:31.470Z,95037.00
2023-06-25T03:50:31.499Z,95035.00
2023-06-25T03:51:31.548Z,95039.00
2023-06-25T03:52:31.583Z,95039.00
2023-06-25T03:53:31.599Z,95039.00
2023-06-25T03:54:31.589Z,95041.00
2023-06-25T03:55:31.628Z,95041.00
2023-06-25T03:56:31.639Z,95039.00
2023-06-25T03:57:31.664Z,95037.00
2023-06-25T03:58:31.701Z,95037.00
2023-06-25T03:59:31.749Z,95035.00
2023-06-25T04:00:31.788Z,95035.00
2023-06-25T04:01:31.883Z,95037.00
2023-06-25T04:02:31.889Z,95037.00
2023-06-25T04:03:31.887Z,95037.00
2023-06-25T04:04:31.985Z,95033.00
2023-06-25T04:05:31.998Z,95033.00
2023-06-25T04:06:32.051Z,95037.00
2023-06-25T04:07:32.111Z,95037.00
2023-06-25T04:08:32.176Z,95035.00
2023-06-25T04:09:32.234Z,95035.00
2023-06-25T04:10:32.312Z,95033.00
2023-06-25T04:11:32.355Z,95031.00
2023-06-25T04:12:32.403Z,95035.00
2023-06-25T04:13:32.464Z,95037.00
2023-06-25T04:14:32.532Z,95035.00
2023-06-25T04:15:32.552Z,95039.00
2023-06-25T04:16:32.582Z,95039.00
2023-06-25T04:17:32.606Z,95037.00
2023-06-25T04:18:33.180Z,95037.00
2023-06-25T04:19:32.659Z,95035.00
2023-06-25T04:20:32.673Z,95041.00
2023-06-25T04:21:32.702Z,95041.00
2023-06-25T04:22:32.746Z,95039.00
2023-06-25T04:23:32.860Z,95039.00
2023-06-25T04:24:32.904Z,95039.00
2023-06-25T04:25:32.946Z,95037.00
2023-06-25T04:26:32.944Z,95037.00
2023-06-25T04:27:32.982Z,95039.00
2023-06-25T04:28:32.996Z,95037.00
2023-06-25T04:29:33.015Z,95037.00
2023-06-25T04:30:33.077Z,95035.00
2023-06-25T04:31:33.068Z,95035.00
2023-06-25T04:32:33.106Z,95033.00
2023-06-25T04:33:33.113Z,95035.00
2023-06-25T04:34:33.071Z,95035.00
2023-06-25T04:35:33.094Z,95035.00
2023-06-25T04:36:33.094Z,95033.00
2023-06-25T04:37:33.111Z,95033.00
2023-06-25T04:38:33.133Z,95035.00
2023-06-25T04:39:33.179Z,95039.00
2023-06-25T04:40:33.189Z,95033.00
2023-06-25T04:41:33.194Z,95039.00
2023-06-25T04:42:33.262Z,95033.00
2023-06-25T04:43:33.275Z,95033.00
2023-06-25T04:44:33.364Z,95033.00
2023-06-25T04:45:33.397Z,95033.00
2023-06-25T04:46:33.427Z,95031.00
2023-06-25T04:47:33.436Z,95035.00
2023-06-25T04:48:33.475Z,95031.00
2023-06-25T04:49:33.544Z,95031.00
2023-06-25T04:50:33.562Z,95033.00
2023-06-25T04:51:33.605Z,95033.00
2023-06-25T04:52:33.650Z,95031.00
2023-06-25T04:53:34.999Z,95029.00
2023-06-25T04:54:33.653Z,95029.00
2023-06-25T04:55:33.672Z,95031.00
2023-06-25T04:56:33.682Z,95029.00
2023-06-25T04:57:33.713Z,95033.00
2023-06-25T04:58:33.785Z,95035.00
2023-06-25T04:59:33.813Z,95033.00
2023-06-25T05:00:33.877Z,95033.00
2023-06-25T05:01:33.980Z,95031.00
2023-06-25T05:02:33.978Z,95033.00
2023-06-25T05:03:34.019Z,95035.00
2023-06-25T05:04:34.002Z,95033.00
2023-06-25T05:05:34.102Z,95031.00
2023-06-25T05:06:34.036Z,95029.00
2023-06-25T05:07:34.035Z,95031.00
2023-06-25T05:08:34.019Z,95033.00
2023-06-25T05:09:34.021Z,95031.00
2023-06-25T05:10:34.038Z,95037.00
2023-06-25T05:11:34.018Z,95037.00
2023-06-25T05:12:34.130Z,95037.00
2023-06-25T05:13:34.114Z,95039.00
2023-06-25T05:14:34.177Z,95041.00
2023-06-25T05:15:34.242Z,95039.00
2023-06-25T05:16:34.304Z,95037.00
2023-06-25T05:17:34.348Z,95037.00
2023-06-25T05:18:34.366Z,95035.00
2023-06-25T05:19:34.363Z,95037.00
2023-06-25T05:20:34.355Z,95035.00
2023-06-25T05:21:34.370Z,95033.00
2023-06-25T05:22:34.390Z,95033.00
2023-06-25T05:23:34.413Z,95031.00
2023-06-25T05:24:34.387Z,95029.00
2023-06-25T05:25:34.453Z,95033.00
2023-06-25T05:26:34.417Z,95031.00
2023-06-25T05:27:34.404Z,95033.00
2023-06-25T05:28:35.269Z,95031.00
2023-06-25T05:29:34.414Z,95031.00
2023-06-25T05:30:35.487Z,95031.00
2023-06-25T05:31:34.457Z,95029.00
2023-06-25T05:32:34.470Z,95035.00
2023-06-25T05:33:34.468Z,95033.00
2023-06-25T05:34:34.471Z,95033.00
2023-06-25T05:35:34.691Z,95035.00
2023-06-25T05:36:34.524Z,95035.00
2023-06-25T05:37:34.549Z,95037.00
2023-06-25T05:38:34.577Z,95037.00
2023-06-25T05:39:35.220Z,95033.00
2023-06-25T05:40:34.683Z,95035.00
2023-06-25T05:41:34.686Z,95033.00
2023-06-25T05:42:34.759Z,95035.00
2023-06-25T05:43:34.780Z,95031.00
2023-06-25T05:44:34.799Z,95033.00
2023-06-25T05:45:35.018Z,95035.00
2023-06-25T05:46:34.904Z,95035.00
2023-06-25T05:47:34.978Z,95031.00
2023-06-25T05:48:34.980Z,95033.00
2023-06-25T05:49:35.060Z,95031.00
2023-06-25T05:50:35.070Z,95029.00
2023-06-25T05:51:35.086Z,95027.00
2023-06-25T05:52:35.156Z,95027.00
2023-06-25T05:53:35.174Z,95027.00
2023-06-25T05:54:35.197Z,95023.00
2023-06-25T05:55:35.495Z,95025.00
2023-06-25T05:56:35.302Z,95023.00
2023-06-25T05:57:35.326Z,95021.00
2023-06-25T05:58:35.352Z,95021.00
2023-06-25T05:59:35.385Z,95017.00
2023-06-25T06:00:35.404Z,95025.00
2023-06-25T06:01:35.468Z,95019.00
2023-06-25T06:02:35.472Z,95019.00
2023-06-25T06:03:35.478Z,95021.00
2023-06-25T06:04:35.504Z,95017.00
2023-06-25T06:05:35.669Z,95019.00
2023-06-25T06:06:35.545Z,95019.00
2023-06-25T06:07:35.587Z,95019.00
2023-06-25T06:08:35.615Z,95021.00
2023-06-25T06:09:35.684Z,95021.00
2023-06-25T06:10:35.714Z,95017.00
2023-06-25T06:11:35.766Z,95019.00
2023-06-25T06:12:35.794Z,95015.00
2023-06-25T06:13:35.804Z,95013.00
2023-06-25T06:14:35.846Z,95011.00
2023-06-25T06:15:36.109Z,95013.00
2023-06-25T06:16:35.858Z,95013.00
2023-06-25T06:17:35.895Z,95009.00
2023-06-25T06:18:35.861Z,95007.00
2023-06-25T06:19:35.856Z,95007.00
2023-06-25T06:20:35.844Z,95001.00
2023-06-25T06:21:35.846Z,95000.00
2023-06-25T06:22:36.251Z,94998.00
2023-06-25T06:23:36.045Z,94996.00
2023-06-25T06:24:35.855Z,94994.00
2023-06-25T06:25:36.402Z,94988.00
2023-06-25T06:26:35.882Z,94988.00
2023-06-25T06:27:35.940Z,94990.00
2023-06-25T06:28:35.924Z,94990.00
2023-06-25T06:29:35.955Z,94990.00
2023-06-25T06:30:36.009Z,94990.00
2023-06-25T06:31:35.994Z,94988.00
2023-06-25T06:32:36.090Z,94986.00
2023-06-25T06:33:37.686Z,94986.00
2023-06-25T06:34:36.124Z,94982.00
2023-06-25T06:35:36.468Z,94982.00
2023-06-25T06:36:36.252Z,94982.00
2023-06-25T06:37:36.318Z,94980.00
2023-06-25T06:38:36.401Z,94980.00
2023-06-25T06:39:36.413Z,94978.00
2023-06-25T06:40:36.432Z,94976.00
2023-06-25T06:41:36.449Z,94978.00
2023-06-25T06:42:36.456Z,94978.00
2023-06-25T06:43:36.509Z,94976.00
2023-06-25T06:44:36.539Z,94976.00
2023-06-25T06:45:36.843Z,94970.00
2023-06-25T06:46:36.659Z,94972.00
2023-06-25T06:47:36.716Z,94966.00
2023-06-25T06:48:36.776Z,94968.00
2023-06-25T06:49:36.850Z,94964.00
2023-06-25T06:50:36.896Z,94964.00
2023-06-25T06:51:36.939Z,94964.00
2023-06-25T06:52:36.972Z,94962.00
2023-06-25T06:53:37.054Z,94960.00
2023-06-25T06:54:37.069Z,94960.00
2023-06-25T06:55:37.338Z,94958.00
2023-06-25T06:56:37.079Z,94960.00
2023-06-25T06:57:37.617Z,94958.00
2023-06-25T06:58:37.149Z,94960.00
2023-06-25T06:59:37.204Z,94956.00
2023-06-25T07:00:37.220Z,94954.00
2023-06-25T07:01:37.333Z,94954.00
2023-06-25T07:02:37.309Z,94954.00
2023-06-25T07:03:37.339Z,94953.00
2023-06-25T07:04:37.384Z,94951.00
2023-06-25T07:05:37.627Z,94949.00
2023-06-25T07:06:37.442Z,94947.00
2023-06-25T07:07:37.464Z,94945.00
2023-06-25T07:08:37.544Z,94945.00
2023-06-25T07:09:37.564Z,94939.00
2023-06-25T07:10:37.572Z,94943.00
2023-06-25T07:11:37.623Z,94939.00
2023-06-25T07:12:37.625Z,94941.00
2023-06-25T07:13:37.663Z,94937.00
2023-06-25T07:14:37.712Z,94935.00
2023-06-25T07:15:38.036Z,94933.00
2023-06-25T07:16:37.833Z,94931.00
2023-06-25T07:17:37.964Z,94927.00
2023-06-25T07:18:37.958Z,94927.00
2023-06-25T07:19:38.027Z,94925.00
2023-06-25T07:20:38.105Z,94921.00
2023-06-25T07:21:38.164Z,94921.00
2023-06-25T07:22:38.195Z,94919.00
2023-06-25T07:23:38.270Z,94915.00
2023-06-25T07:24:38.297Z,94915.00
2023-06-25T07:25:38.663Z,94911.00
2023-06-25T07:26:38.397Z,94911.00
2023-06-25T07:27:38.504Z,94907.00
2023-06-25T07:28:38.526Z,94909.00
2023-06-25T07:29:38.494Z,94907.00
2023-06-25T07:30:38.500Z,94906.00
2023-06-25T07:31:38.549Z,94906.00
2023-06-25T07:32:38.613Z,94906.00
2023-06-25T07:33:38.561Z,94909.00
2023-06-25T07:34:38.594Z,94909.00
2023-06-25T07:35:39.062Z,94906.00
2023-06-25T07:36:38.625Z,94904.00
2023-06-25T07:37:38.996Z,94906.00
2023-06-25T07:38:38.617Z,94904.00
2023-06-25T07:39:38.672Z,94902.00
2023-06-25T07:40:38.692Z,94902.00
2023-06-25T07:41:38.687Z,94900.00
2023-06-25T07:42:38.708Z,94902.00
2023-06-25T07:43:38.737Z,94900.00
2023-06-25T07:44:54.592Z,94892.00
2023-06-25T07:45:40.143Z,94888.00
2023-06-25T07:46:38.785Z,94886.00
2023-06-25T07:47:38.755Z,94886.00
2023-06-25T07:48:38.744Z,94882.00
2023-06-25T07:49:38.731Z,94882.00
2023-06-25T07:50:38.729Z,94880.00
2023-06-25T07:51:38.715Z,94880.00
2023-06-25T07:52:38.704Z,94878.00
2023-06-25T07:53:38.688Z,94878.00
2023-06-25T07:54:38.701Z,94874.00
2023-06-25T07:55:52.169Z,94870.00
2023-06-25T07:56:39.682Z,94876.00
2023-06-25T07:57:38.647Z,94872.00
2023-06-25T07:58:38.793Z,94870.00
2023-06-25T07:59:51.113Z,94868.00
2023-06-25T08:00:39.630Z,94864.00
2023-06-25T08:01:38.617Z,94864.00
2023-06-25T08:02:38.771Z,94862.00
2023-06-25T08:03:38.766Z,94860.00
2023-06-25T08:04:38.659Z,94858.00
2023-06-25T08:05:38.759Z,94858.00
2023-06-25T08:06:38.611Z,94858.00
2023-06-25T08:07:38.636Z,94856.00
2023-06-25T08:08:38.621Z,94853.00
2023-06-25T08:09:38.578Z,94853.00
2023-06-25T08:10:38.589Z,94847.00
2023-06-25T08:11:38.611Z,94849.00
2023-06-25T08:12:38.566Z,94847.00
2023-06-25T08:13:38.585Z,94845.00
2023-06-25T08:14:38.641Z,94841.00
2023-06-25T08:15:39.246Z,94845.00
2023-06-25T08:16:38.748Z,94841.00
2023-06-25T08:17:38.830Z,94843.00
2023-06-25T08:18:38.886Z,94841.00
2023-06-25T08:19:38.927Z,94837.00
2023-06-25T08:20:38.930Z,94835.00
2023-06-25T08:21:38.983Z,94835.00
2023-06-25T08:22:38.972Z,94833.00
2023-06-25T08:23:38.988Z,94829.00
2023-06-25T08:24:39.072Z,94835.00
2023-06-25T08:25:39.331Z,94825.00
2023-06-25T08:26:39.026Z,94833.00
2023-06-25T08:27:39.072Z,94829.00
2023-06-25T08:28:39.129Z,94831.00
2023-06-25T08:29:39.196Z,94831.00
2023-06-25T08:30:39.268Z,94831.00
2023-06-25T08:31:39.386Z,94829.00
2023-06-25T08:32:39.407Z,94829.00
2023-06-25T08:33:39.487Z,94827.00
2023-06-25T08:34:39.588Z,94833.00
2023-06-25T08:35:39.832Z,94831.00
2023-06-25T08:36:39.520Z,94833.00
2023-06-25T08:37:39.498Z,94833.00
2023-06-25T08:38:39.525Z,94831.00
2023-06-25T08:39:39.560Z,94829.00
2023-06-25T08:40:39.623Z,94831.00
2023-06-25T08:41:39.648Z,94831.00
2023-06-25T08:42:39.694Z,94829.00
2023-06-25T08:43:39.717Z,94827.00
2023-06-25T08:44:39.739Z,94825.00
2023-06-25T08:45:39.997Z,94823.00
2023-06-25T08:46:39.859Z,94825.00
2023-06-25T08:47:39.901Z,94825.00
2023-06-25T08:48:39.938Z,94827.00
2023-06-25T08:49:39.977Z,94825.00
2023-06-25T08:50:39.993Z,94823.00
2023-06-25T08:51:40.029Z,94823.00
2023-06-25T08:52:40.108Z,94823.00
2023-06-25T08:53:40.119Z,94823.00
2023-06-25T08:54:40.191Z,94819.00
2023-06-25T08:55:40.208Z,94819.00
2023-06-25T08:56:40.236Z,94819.00
2023-06-25T08:57:40.276Z,94817.00
2023-06-25T08:58:40.269Z,94817.00
2023-06-25T08:59:40.269Z,94815.00
2023-06-25T09:00:40.291Z,94813.00
2023-06-25T09:01:40.305Z,94813.00
2023-06-25T09:02:40.409Z,94807.00
2023-06-25T09:03:40.406Z,94809.00
2023-06-25T09:04:40.470Z,94807.00
2023-06-25T09:05:40.464Z,94807.00
2023-06-25T09:06:50.804Z,94804.00
2023-06-25T09:07:41.513Z,94802.00
2023-06-25T09:08:40.504Z,94802.00
2023-06-25T09:09:40.561Z,94806.00
2023-06-25T09:10:40.456Z,94798.00
2023-06-25T09:11:40.467Z,94802.00
2023-06-25T09:12:40.461Z,94802.00
2023-06-25T09:13:40.434Z,94800.00
2023-06-25T09:14:40.444Z,94800.00
2023-06-25T09:15:40.431Z,94798.00
2023-06-25T09:16:40.439Z,94796.00
2023-06-25T09:17:40.433Z,94798.00
2023-06-25T09:18:40.413Z,94796.00
2023-06-25T09:19:40.444Z,94798.00
2023-06-25T09:20:40.440Z,94792.00
2023-06-25T09:21:40.474Z,94792.00
2023-06-25T09:22:40.502Z,94792.00
2023-06-25T09:23:40.523Z,94790.00
2023-06-25T09:24:40.531Z,94788.00
2023-06-25T09:25:40.557Z,94786.00
2023-06-25T09:26:40.554Z,94782.00
2023-06-25T09:27:40.618Z,94780.00
2023-06-25T09:28:40.694Z,94780.00
2023-06-25T09:29:40.738Z,94776.00
2023-06-25T09:30:40.780Z,94776.00
2023-06-25T09:31:40.765Z,94774.00
2023-06-25T09:32:40.797Z,94770.00
2023-06-25T09:33:40.828Z,94768.00
2023-06-25T09:34:40.864Z,94768.00
2023-06-25T09:35:40.967Z,94766.00
2023-06-25T09:36:40.967Z,94764.00
2023-06-25T09:37:40.999Z,94762.00
2023-06-25T09:38:40.992Z,94760.00
2023-06-25T09:39:41.011Z,94759.00
2023-06-25T09:40:41.054Z,94760.00
2023-06-25T09:41:41.083Z,94757.00
2023-06-25T09:42:41.114Z,94753.00
2023-06-25T09:43:41.150Z,94753.00
2023-06-25T09:44:41.183Z,94751.00
2023-06-25T09:45:41.185Z,94751.00
2023-06-25T09:46:41.479Z,94749.00
2023-06-25T09:47:41.285Z,94749.00
2023-06-25T09:48:41.266Z,94749.00
2023-06-25T09:49:41.292Z,94747.00
2023-06-25T09:50:41.337Z,94745.00
2023-06-25T09:51:41.372Z,94747.00
2023-06-25T09:52:41.339Z,94747.00
2023-06-25T09:53:41.389Z,94747.00
2023-06-25T09:54:41.425Z,94743.00
2023-06-25T09:55:41.443Z,94741.00
2023-06-25T09:56:41.503Z,94739.00
2023-06-25T09:57:41.525Z,94741.00
2023-06-25T09:58:41.541Z,94741.00
2023-06-25T09:59:41.622Z,94737.00
2023-06-25T10:00:41.619Z,94735.00
2023-06-25T10:01:41.767Z,94731.00
2023-06-25T10:02:41.758Z,94733.00
2023-06-25T10:03:41.816Z,94731.00
2023-06-25T10:04:44.270Z,94727.00
2023-06-25T10:05:41.753Z,94727.00
2023-06-25T10:06:41.790Z,94727.00
2023-06-25T10:07:41.755Z,94725.00
2023-06-25T10:08:41.780Z,94721.00
2023-06-25T10:09:41.711Z,94721.00
2023-06-25T10:10:41.941Z,94717.00
2023-06-25T10:11:41.734Z,94715.00
2023-06-25T10:12:41.695Z,94717.00
2023-06-25T10:13:41.713Z,94713.00
2023-06-25T10:14:41.701Z,94713.00
2023-06-25T10:15:42.042Z,94713.00
2023-06-25T10:16:41.682Z,94710.00
2023-06-25T10:17:41.708Z,94710.00
2023-06-25T10:18:41.683Z,94708.00
2023-06-25T10:19:41.680Z,94704.00
2023-06-25T10:20:41.650Z,94700.00
2023-06-25T10:21:41.668Z,94704.00
2023-06-25T10:22:41.650Z,94698.00
2023-06-25T10:23:41.647Z,94698.00
2023-06-25T10:24:41.687Z,94698.00
2023-06-25T10:25:41.747Z,94694.00
2023-06-25T10:26:41.625Z,94688.00
2023-06-25T10:27:41.671Z,94694.00
2023-06-25T10:28:41.631Z,94690.00
2023-06-25T10:29:41.631Z,94686.00
2023-06-25T10:30:41.659Z,94686.00
2023-06-25T10:31:41.718Z,94682.00
2023-06-25T10:32:41.693Z,94684.00
2023-06-25T10:33:41.681Z,94682.00
2023-06-25T10:34:41.676Z,94680.00
2023-06-25T10:35:41.688Z,94682.00
2023-06-25T10:36:41.752Z,94680.00
2023-06-25T10:37:41.751Z,94678.00
2023-06-25T10:38:41.834Z,94678.00
2023-06-25T10:39:41.850Z,94676.00
2023-06-25T10:40:41.918Z,94678.00
2023-06-25T10:41:42.036Z,94678.00
2023-06-25T10:42:41.963Z,94672.00
2023-06-25T10:43:41.976Z,94672.00
2023-06-25T10:44:41.967Z,94674.00
2023-06-25T10:45:41.961Z,94672.00
2023-06-25T10:46:41.988Z,94672.00
2023-06-25T10:47:42.062Z,94670.00
2023-06-25T10:48:42.073Z,94668.00
2023-06-25T10:49:42.124Z,94670.00
2023-06-25T10:50:42.182Z,94666.00
2023-06-25T10:51:43.565Z,94662.00
2023-06-25T10:52:42.231Z,94662.00
2023-06-25T10:53:42.258Z,94660.00
2023-06-25T10:54:42.337Z,94658.00
2023-06-25T10:55:42.345Z,94657.00
2023-06-25T10:56:42.406Z,94655.00
2023-06-25T10:57:42.462Z,94655.00
2023-06-25T10:58:42.523Z,94655.00
2023-06-25T10:59:42.553Z,94653.00
2023-06-25T11:00:42.596Z,94651.00
2023-06-25T11:01:42.667Z,94649.00
2023-06-25T11:02:42.746Z,94647.00
2023-06-25T11:03:42.874Z,94645.00
2023-06-25T11:04:42.727Z,94645.00
2023-06-25T11:05:42.753Z,94635.00
2023-06-25T11:06:42.759Z,94635.00
2023-06-25T11:07:42.734Z,94635.00
2023-06-25T11:08:42.792Z,94631.00
2023-06-25T11:09:42.810Z,94631.00
2023-06-25T11:10:42.852Z,94633.00
2023-06-25T11:11:42.921Z,94631.00
2023-06-25T11:12:42.960Z,94629.00
2023-06-25T11:13:43.004Z,94627.00
2023-06-25T11:14:43.075Z,94629.00
2023-06-25T11:15:43.123Z,94625.00
2023-06-25T11:16:43.109Z,94623.00
2023-06-25T11:17:43.154Z,94623.00
2023-06-25T11:18:43.151Z,94619.00
2023-06-25T11:19:43.132Z,94619.00
2023-06-25T11:20:43.134Z,94619.00
2023-06-25T11:21:43.143Z,94619.00
2023-06-25T11:22:43.214Z,94613.00
2023-06-25T11:23:43.232Z,94615.00
2023-06-25T11:24:43.228Z,94615.00
2023-06-25T11:25:43.587Z,94612.00
2023-06-25T11:26:43.220Z,94612.00
2023-06-25T11:27:43.226Z,94610.00
2023-06-25T11:28:43.232Z,94604.00
2023-06-25T11:29:43.308Z,94604.00
2023-06-25T11:30:43.363Z,94604.00
2023-06-25T11:31:43.366Z,94602.00
2023-06-25T11:32:43.383Z,94600.00
2023-06-25T11:33:43.417Z,94600.00
2023-06-25T11:34:43.390Z,94600.00
2023-06-25T11:35:43.480Z,94598.00
2023-06-25T11:36:43.476Z,94600.00
2023-06-25T11:37:43.506Z,94596.00
2023-06-25T11:38:43.579Z,94594.00
2023-06-25T11:39:43.661Z,94592.00
2023-06-25T11:40:43.581Z,94592.00
2023-06-25T11:41:43.643Z,94590.00
2023-06-25T11:42:43.701Z,94588.00
2023-06-25T11:43:43.754Z,94588.00
2023-06-25T11:44:43.807Z,94584.00